createdAt,value
2018-02-21T00:02:18.872Z,68.22
2018-02-21T00:04:48.655Z,67.56
2018-02-21T00:07:19.236Z,68.01
2018-02-21T00:09:49.305Z,68.40
2018-02-21T00:12:19.017Z,68.29
2018-02-21T00:14:48.741Z,68.09
2018-02-21T00:17:18.477Z,68.01
2018-02-21T00:19:48.360Z,68.19
2018-02-21T00:22:18.103Z,68.32
2018-02-21T00:24:47.824Z,68.35
2018-02-21T00:27:17.585Z,68.27
2018-02-21T00:29:48.026Z,68.04
2018-02-21T00:32:17.891Z,68.24
2018-02-21T00:34:47.538Z,68.65
2018-02-21T00:37:17.231Z,68.33
2018-02-21T00:39:46.953Z,68.45
2018-02-21T00:42:16.678Z,68.50
2018-02-21T00:44:46.400Z,68.59
2018-02-21T00:47:16.409Z,68.46
2018-02-21T00:49:46.120Z,68.44
2018-02-21T00:52:15.880Z,68.20
2018-02-21T00:54:45.583Z,68.26
2018-02-21T00:57:15.372Z,68.22
2018-02-21T00:59:45.896Z,68.18
2018-02-21T01:02:16.431Z,68.21
2018-02-21T01:04:46.147Z,68.40
2018-02-21T01:07:15.908Z,68.66
2018-02-21T01:09:45.638Z,68.50
2018-02-21T01:12:15.492Z,68.38
2018-02-21T01:14:45.181Z,68.41
2018-02-21T01:17:14.871Z,68.88
2018-02-21T01:19:45.387Z,69.02
2018-02-21T01:22:15.122Z,68.91
2018-02-21T01:24:44.863Z,68.83
2018-02-21T01:27:14.777Z,68.82
2018-02-21T01:29:44.489Z,68.90
2018-02-21T01:32:14.248Z,68.92
2018-02-21T01:34:44.036Z,68.62
2018-02-21T01:37:13.821Z,68.79
2018-02-21T01:39:43.577Z,68.42
2018-02-21T01:42:13.344Z,68.40
2018-02-21T01:44:43.082Z,68.22
2018-02-21T01:47:12.793Z,68.21
2018-02-21T01:49:43.050Z,68.53
2018-02-21T01:52:12.840Z,68.21
2018-02-21T01:54:42.652Z,68.16
2018-02-21T01:57:13.104Z,68.30
2018-02-21T01:59:43.520Z,68.36
2018-02-21T02:02:14.037Z,68.25
2018-02-21T02:04:43.974Z,68.50
2018-02-21T02:07:13.688Z,68.25
2018-02-21T02:09:43.693Z,68.41
2018-02-21T02:12:13.493Z,68.71
2018-02-21T02:14:44.017Z,68.62
2018-02-21T02:17:13.738Z,68.57
2018-02-21T02:19:43.600Z,68.56
2018-02-21T02:22:13.490Z,68.43
2018-02-21T02:24:43.546Z,68.48
2018-02-21T02:27:13.276Z,68.13
2018-02-21T02:29:43.067Z,67.88
2018-02-21T02:32:12.880Z,68.17
2018-02-21T02:34:43.057Z,68.60
2018-02-21T02:37:13.672Z,68.48
2018-02-21T02:39:52.836Z,68.89
2018-02-21T02:42:22.568Z,69.15
2018-02-21T02:44:53.044Z,69.35
2018-02-21T02:47:23.621Z,69.70
2018-02-21T02:49:53.308Z,69.86
2018-02-21T02:52:23.880Z,70.12
2018-02-21T02:54:53.562Z,70.23
2018-02-21T02:57:24.012Z,70.51
2018-02-21T02:59:54.504Z,70.58
2018-02-21T03:02:24.242Z,70.65
2018-02-21T03:04:54.032Z,71.28
2018-02-21T03:07:23.847Z,71.23
2018-02-21T03:09:53.588Z,71.38
2018-02-21T03:12:23.444Z,71.21
2018-02-21T03:14:53.135Z,71.29
2018-02-21T03:17:22.964Z,71.72
2018-02-21T03:19:52.710Z,71.89
2018-02-21T03:22:22.372Z,71.86
2018-02-21T03:24:52.096Z,71.80
2018-02-21T03:27:21.852Z,71.91
2018-02-21T03:29:51.665Z,72.01
2018-02-21T03:32:22.098Z,71.84
2018-02-21T03:34:51.816Z,72.06
2018-02-21T03:37:21.484Z,71.53
2018-02-21T03:39:51.681Z,71.71
2018-02-21T03:42:21.536Z,71.49
2018-02-21T03:44:51.248Z,71.71
2018-02-21T03:47:21.077Z,72.02
2018-02-21T03:49:51.047Z,71.92
2018-02-21T03:52:20.870Z,71.90
2018-02-21T03:54:51.197Z,72.08
2018-02-21T03:57:21.246Z,71.85
2018-02-21T03:59:51.943Z,71.75
2018-02-21T04:02:21.689Z,71.88
2018-02-21T04:04:51.483Z,71.80
2018-02-21T04:07:21.192Z,71.41
2018-02-21T04:09:51.085Z,71.50
2018-02-21T04:12:20.860Z,71.44
2018-02-21T04:14:50.586Z,71.45
2018-02-21T04:17:20.232Z,71.65
2018-02-21T04:19:49.992Z,71.29
2018-02-21T04:22:19.967Z,71.14
2018-02-21T04:24:49.704Z,71.25
2018-02-21T04:27:19.520Z,71.49
2018-02-21T04:29:49.277Z,71.17
2018-02-21T04:32:18.972Z,71.03
2018-02-21T04:34:49.105Z,70.72
2018-02-21T04:37:18.840Z,70.64
2018-02-21T04:39:48.699Z,70.73
2018-02-21T04:42:18.412Z,70.73
2018-02-21T04:44:49.031Z,70.58
2018-02-21T04:47:18.782Z,70.61
2018-02-21T04:49:48.503Z,70.52
2018-02-21T04:52:18.240Z,70.41
2018-02-21T04:54:48.105Z,70.29
2018-02-21T04:57:17.938Z,70.25
2018-02-21T04:59:47.756Z,70.54
2018-02-21T05:02:17.465Z,70.40
2018-02-21T05:04:47.252Z,70.19
2018-02-21T05:07:16.955Z,69.80
2018-02-21T05:09:46.697Z,69.82
2018-02-21T05:12:16.878Z,69.88
2018-02-21T05:14:46.703Z,69.99
2018-02-21T05:17:16.417Z,70.20
2018-02-21T05:19:46.423Z,70.36
2018-02-21T05:22:16.908Z,70.39
2018-02-21T05:24:46.651Z,70.49
2018-02-21T05:27:16.417Z,70.42
2018-02-21T05:29:46.902Z,70.23
2018-02-21T05:32:16.676Z,70.41
2018-02-21T05:34:47.632Z,70.57
2018-02-21T05:37:17.353Z,70.78
2018-02-21T05:39:47.122Z,71.03
2018-02-21T05:42:16.868Z,70.96
2018-02-21T05:44:46.760Z,70.98
2018-02-21T05:47:16.534Z,71.03
2018-02-21T05:49:47.093Z,71.11
2018-02-21T05:52:16.819Z,71.04
2018-02-21T05:54:46.540Z,71.11
2018-02-21T05:57:16.431Z,71.34
2018-02-21T05:59:46.230Z,71.40
2018-02-21T06:02:15.977Z,71.61
2018-02-21T06:04:46.541Z,71.61
2018-02-21T06:07:16.313Z,71.82
2018-02-21T06:09:46.033Z,72.11
2018-02-21T06:12:15.737Z,72.38
2018-02-21T06:14:45.570Z,72.49
2018-02-21T06:17:16.056Z,72.22
2018-02-21T06:19:46.384Z,72.37
2018-02-21T06:22:16.090Z,72.33
2018-02-21T06:24:45.860Z,72.42
2018-02-21T06:27:15.584Z,72.71
2018-02-21T06:29:45.449Z,72.96
2018-02-21T06:32:15.136Z,73.09
2018-02-21T06:34:44.872Z,73.04
2018-02-21T06:37:14.616Z,72.91
2018-02-21T06:39:44.400Z,73.28
2018-02-21T06:42:14.320Z,73.38
2018-02-21T06:44:44.152Z,73.20
2018-02-21T06:47:13.849Z,73.03
2018-02-21T06:49:44.376Z,73.02
2018-02-21T06:52:14.941Z,72.88
2018-02-21T06:54:44.803Z,73.11
2018-02-21T06:57:14.630Z,73.26
2018-02-21T06:59:44.391Z,73.32
2018-02-21T07:02:28.374Z,73.42
2018-02-21T07:04:58.064Z,73.73
2018-02-21T07:07:28.564Z,73.77
2018-02-21T07:09:58.455Z,73.95
2018-02-21T07:12:28.266Z,73.55
2018-02-21T07:14:58.806Z,73.60
2018-02-21T07:17:29.380Z,74.33
2018-02-21T07:19:59.087Z,73.52
2018-02-21T07:22:28.905Z,74.09
2018-02-21T07:24:58.714Z,74.01
2018-02-21T07:27:29.268Z,73.72
2018-02-21T07:29:59.134Z,73.40
2018-02-21T07:32:29.039Z,73.11
2018-02-21T07:34:58.762Z,72.89
2018-02-21T07:37:28.632Z,72.65
2018-02-21T07:39:58.354Z,72.26
2018-02-21T07:42:28.150Z,72.69
2018-02-21T07:44:57.976Z,73.00
2018-02-21T07:47:27.708Z,73.20
2018-02-21T07:49:57.769Z,72.90
2018-02-21T07:52:28.971Z,72.81
2018-02-21T07:54:59.595Z,72.63
2018-02-21T07:57:29.444Z,72.90
2018-02-21T07:59:59.388Z,72.80
2018-02-21T08:02:29.128Z,72.56
2018-02-21T08:04:59.700Z,72.22
2018-02-21T08:07:30.183Z,71.48
2018-02-21T08:10:00.062Z,71.63
2018-02-21T08:12:29.782Z,71.90
2018-02-21T08:14:59.508Z,71.42
2018-02-21T08:17:29.392Z,71.42
2018-02-21T08:19:59.161Z,71.09
2018-02-21T08:22:29.044Z,70.75
2018-02-21T08:24:58.788Z,70.52
2018-02-21T08:27:29.437Z,70.19
2018-02-21T08:29:59.299Z,69.96
2018-02-21T08:32:29.171Z,69.69
2018-02-21T08:34:59.720Z,69.71
2018-02-21T08:37:30.429Z,69.26
2018-02-21T08:40:00.154Z,69.17
2018-02-21T08:42:29.858Z,69.33
2018-02-21T08:44:59.568Z,69.13
2018-02-21T08:47:29.501Z,68.54
2018-02-21T08:49:59.289Z,68.88
2018-02-21T08:52:28.994Z,68.43
2018-02-21T08:54:59.702Z,68.48
2018-02-21T08:57:29.605Z,68.50
2018-02-21T08:59:59.317Z,68.27
2018-02-21T09:02:29.039Z,68.04
2018-02-21T09:04:58.917Z,67.31
2018-02-21T09:07:28.874Z,66.80
2018-02-21T09:09:58.769Z,67.25
2018-02-21T09:12:28.424Z,66.70
2018-02-21T09:14:58.702Z,66.54
2018-02-21T09:17:28.397Z,66.17
2018-02-21T09:19:58.160Z,66.02
2018-02-21T09:22:27.880Z,66.57
2018-02-21T09:24:57.711Z,66.47
2018-02-21T09:27:28.213Z,66.69
2018-02-21T09:29:57.989Z,65.61
2018-02-21T09:32:27.702Z,65.47
2018-02-21T09:34:58.484Z,65.35
2018-02-21T09:37:28.341Z,65.06
2018-02-21T09:39:58.046Z,64.72
2018-02-21T09:42:27.716Z,64.79
2018-02-21T09:44:58.163Z,64.70
2018-02-21T09:47:28.621Z,63.97
2018-02-21T09:49:58.279Z,63.72
2018-02-21T09:52:28.004Z,63.05
2018-02-21T09:54:57.861Z,62.98
2018-02-21T09:57:28.288Z,62.81
2018-02-21T09:59:58.077Z,62.29
2018-02-21T10:02:27.810Z,62.27
2018-02-21T10:04:57.823Z,62.30
2018-02-21T10:07:27.730Z,62.01
2018-02-21T10:09:57.447Z,61.39
2018-02-21T10:12:27.126Z,61.56
2018-02-21T10:14:57.580Z,61.30
2018-02-21T10:17:27.292Z,61.35
2018-02-21T10:19:57.068Z,60.69
2018-02-21T10:22:26.753Z,59.52
2018-02-21T10:24:56.541Z,59.49
2018-02-21T10:27:26.209Z,59.50
2018-02-21T10:29:56.866Z,58.47
2018-02-21T10:32:26.535Z,58.04
2018-02-21T10:34:57.012Z,57.33
2018-02-21T10:37:26.704Z,56.71
2018-02-21T10:39:57.182Z,55.97
2018-02-21T10:42:26.928Z,55.29
2018-02-21T10:44:56.601Z,54.72
2018-02-21T10:47:27.240Z,54.91
2018-02-21T10:49:57.455Z,54.51
2018-02-21T10:52:27.177Z,53.66
2018-02-21T10:54:57.039Z,53.20
2018-02-21T10:57:26.738Z,53.49
2018-02-21T10:59:57.198Z,52.05
2018-02-21T11:02:27.033Z,52.03
2018-02-21T11:04:56.934Z,51.50
2018-02-21T11:07:26.641Z,51.28
2018-02-21T11:09:57.121Z,50.49
2018-02-21T11:12:26.836Z,50.29
2018-02-21T11:14:57.328Z,49.86
2018-02-21T11:17:26.963Z,49.57
2018-02-21T11:19:57.630Z,50.40
2018-02-21T11:22:27.348Z,50.32
2018-02-21T11:24:57.186Z,50.47
2018-02-21T11:27:26.861Z,50.81
2018-02-21T11:29:57.330Z,50.69
2018-02-21T11:32:27.130Z,50.76
2018-02-21T11:34:56.877Z,50.72
2018-02-21T11:37:26.627Z,50.16
2018-02-21T11:39:56.428Z,50.30
2018-02-21T11:42:26.146Z,49.94
2018-02-21T11:44:55.914Z,50.04
2018-02-21T11:47:25.748Z,50.02
2018-02-21T11:49:55.553Z,50.14
2018-02-21T11:52:25.368Z,50.12
2018-02-21T11:54:55.123Z,49.89
2018-02-21T11:57:24.952Z,49.60
2018-02-21T11:59:55.531Z,49.58
2018-02-21T12:02:25.333Z,48.71
2018-02-21T12:04:55.879Z,49.54
2018-02-21T12:07:25.674Z,49.99
2018-02-21T12:09:55.465Z,49.68
2018-02-21T12:12:25.562Z,50.15
2018-02-21T12:14:55.344Z,50.14
2018-02-21T12:17:25.257Z,49.63
2018-02-21T12:19:55.110Z,49.61
2018-02-21T12:22:25.660Z,49.24
2018-02-21T12:24:55.393Z,49.24
2018-02-21T12:27:25.372Z,48.67
2018-02-21T12:29:55.083Z,48.80
2018-02-21T12:32:25.025Z,48.87
2018-02-21T12:34:54.771Z,48.74
2018-02-21T12:37:24.476Z,48.21
2018-02-21T12:39:58.479Z,47.90
2018-02-21T12:42:28.544Z,48.27
2018-02-21T12:44:59.065Z,48.44
2018-02-21T12:47:28.928Z,47.20
2018-02-21T12:49:58.736Z,46.62
2018-02-21T12:52:29.260Z,46.75
2018-02-21T12:54:59.064Z,46.87
2018-02-21T12:57:28.850Z,46.79
2018-02-21T12:59:58.609Z,47.42
2018-02-21T13:02:28.413Z,47.61
2018-02-21T13:04:58.161Z,46.97
2018-02-21T13:07:28.098Z,47.59
2018-02-21T13:09:57.836Z,47.27
2018-02-21T13:12:28.391Z,47.21
2018-02-21T13:14:58.120Z,47.25
2018-02-21T13:17:27.873Z,47.56
2018-02-21T13:19:58.398Z,47.22
2018-02-21T13:22:28.141Z,47.63
2018-02-21T13:24:57.840Z,47.28
2018-02-21T13:27:27.646Z,47.04
2018-02-21T13:29:57.392Z,46.16
2018-02-21T13:32:27.140Z,46.15
2018-02-21T13:34:57.044Z,46.53
2018-02-21T13:37:26.831Z,46.93
2018-02-21T13:39:56.563Z,47.22
2018-02-21T13:42:26.401Z,46.69
2018-02-21T13:44:56.217Z,45.68
2018-02-21T13:47:26.042Z,44.67
2018-02-21T13:49:55.883Z,44.48
2018-02-21T13:52:25.623Z,44.85
2018-02-21T13:54:55.374Z,45.36
2018-02-21T13:57:25.950Z,45.64
2018-02-21T13:59:55.705Z,45.65
2018-02-21T14:02:25.584Z,44.95
2018-02-21T14:04:55.333Z,45.47
2018-02-21T14:07:25.287Z,46.42
2018-02-21T14:09:55.013Z,45.71
2018-02-21T14:12:24.760Z,45.92
2018-02-21T14:14:55.306Z,45.39
2018-02-21T14:17:25.828Z,45.78
2018-02-21T14:19:55.737Z,45.30
2018-02-21T14:22:25.450Z,45.63
2018-02-21T14:24:55.256Z,46.11
2018-02-21T14:27:24.988Z,46.54
2018-02-21T14:29:54.751Z,46.15
2018-02-21T14:32:25.234Z,45.55
2018-02-21T14:34:55.055Z,45.23
2018-02-21T14:37:24.809Z,45.01
2018-02-21T14:39:54.588Z,45.28
2018-02-21T14:42:24.371Z,45.72
2018-02-21T14:44:54.140Z,46.00
2018-02-21T14:47:23.922Z,46.42
2018-02-21T14:49:54.597Z,46.41
2018-02-21T14:52:24.707Z,46.70
2018-02-21T14:54:55.238Z,47.00
2018-02-21T14:57:25.089Z,46.34
2018-02-21T14:59:54.874Z,46.42
2018-02-21T15:02:24.786Z,46.08
2018-02-21T15:04:54.561Z,46.41
2018-02-21T15:07:25.238Z,46.71
2018-02-21T15:09:55.050Z,46.69
2018-02-21T15:12:24.952Z,46.77
2018-02-21T15:14:55.329Z,46.54
2018-02-21T15:17:25.109Z,45.93
2018-02-21T15:19:54.866Z,46.06
2018-02-21T15:22:25.040Z,46.46
2018-02-21T15:24:54.863Z,46.49
2018-02-21T15:27:24.576Z,46.21
2018-02-21T15:29:54.349Z,46.25
2018-02-21T15:32:24.253Z,46.46
2018-02-21T15:34:54.863Z,46.10
2018-02-21T15:37:24.605Z,46.40
2018-02-21T15:39:55.167Z,46.61
2018-02-21T15:42:24.989Z,46.71
2018-02-21T15:44:55.053Z,46.83
2018-02-21T15:47:24.880Z,46.59
2018-02-21T15:49:54.625Z,47.12
2018-02-21T15:52:24.355Z,47.24
2018-02-21T15:54:54.244Z,47.07
2018-02-21T15:57:24.026Z,47.01
2018-02-21T15:59:54.645Z,46.31
2018-02-21T16:02:24.367Z,46.59
2018-02-21T16:04:55.288Z,46.82
2018-02-21T16:07:24.971Z,46.94
2018-02-21T16:09:54.910Z,47.11
2018-02-21T16:12:24.720Z,47.25
2018-02-21T16:14:54.528Z,46.66
2018-02-21T16:17:25.095Z,46.84
2018-02-21T16:19:55.341Z,46.80
2018-02-21T16:22:25.101Z,46.92
2018-02-21T16:24:55.089Z,47.14
2018-02-21T16:27:25.017Z,47.58
2018-02-21T16:29:54.812Z,47.90
2018-02-21T16:32:25.880Z,48.44
2018-02-21T16:34:55.706Z,49.00
2018-02-21T16:37:25.455Z,49.18
2018-02-21T16:39:55.501Z,49.44
2018-02-21T16:42:25.534Z,49.73
2018-02-21T16:44:55.582Z,49.90
2018-02-21T16:47:26.102Z,50.21
2018-02-21T16:49:55.931Z,50.01
2018-02-21T16:52:27.134Z,50.26
2018-02-21T16:54:57.107Z,50.63
2018-02-21T16:57:26.977Z,50.75
2018-02-21T16:59:57.467Z,50.59
2018-02-21T17:02:27.266Z,50.96
2018-02-21T17:04:57.488Z,50.59
2018-02-21T17:07:28.124Z,50.69
2018-02-21T17:09:58.036Z,50.76
2018-02-21T17:12:28.625Z,51.06
2018-02-21T17:14:58.384Z,51.17
2018-02-21T17:17:28.931Z,51.45
2018-02-21T17:19:59.491Z,51.53
2018-02-21T17:22:29.271Z,51.71
2018-02-21T17:24:59.184Z,51.82
2018-02-21T17:27:28.978Z,51.98
2018-02-21T17:29:58.796Z,51.98
2018-02-21T17:32:28.520Z,52.13
2018-02-21T17:34:58.312Z,52.19
2018-02-21T17:37:28.194Z,52.20
2018-02-21T17:39:58.045Z,52.17
2018-02-21T17:42:27.995Z,52.22
2018-02-21T17:44:57.716Z,52.11
2018-02-21T17:47:28.342Z,52.29
2018-02-21T17:49:58.166Z,52.48
2018-02-21T17:52:28.951Z,52.75
2018-02-21T17:54:58.804Z,52.91
2018-02-21T17:57:28.693Z,52.76
2018-02-21T17:59:58.474Z,53.17
2018-02-21T18:02:28.354Z,53.68
2018-02-21T18:04:58.459Z,54.82
2018-02-21T18:07:28.319Z,49.76
2018-02-21T18:09:58.549Z,47.00
2018-02-21T18:12:29.174Z,45.21
2018-02-21T18:14:59.741Z,45.16
2018-02-21T18:17:29.813Z,48.46
2018-02-21T18:20:00.379Z,50.69
2018-02-21T18:22:30.559Z,51.90
2018-02-21T18:25:00.274Z,52.47
2018-02-21T18:27:30.727Z,53.04
2018-02-21T18:30:00.520Z,53.42
2018-02-21T18:32:30.741Z,53.98
2018-02-21T18:35:00.571Z,54.02
2018-02-21T18:37:30.786Z,54.27
2018-02-21T18:40:00.584Z,54.53
2018-02-21T18:42:31.386Z,54.75
2018-02-21T18:45:01.306Z,55.01
2018-02-21T18:47:31.521Z,55.14
2018-02-21T18:50:01.309Z,55.34
2018-02-21T18:52:32.957Z,55.56
2018-02-21T18:55:02.740Z,55.82
2018-02-21T18:57:32.965Z,58.28
2018-02-21T19:00:03.473Z,55.82
2018-02-21T19:02:34.067Z,55.80
2018-02-21T19:05:03.945Z,56.21
2018-02-21T19:07:34.878Z,56.36
2018-02-21T19:10:04.853Z,56.74
2018-02-21T19:12:34.861Z,56.95
2018-02-21T19:15:04.664Z,57.15
2018-02-21T19:17:34.468Z,57.26
2018-02-21T19:20:04.497Z,57.81
2018-02-21T19:22:34.239Z,57.71
2018-02-21T19:25:04.341Z,57.84
2018-02-21T19:27:34.305Z,58.07
2018-02-21T19:30:05.809Z,58.21
2018-02-21T19:32:35.643Z,58.15
2018-02-21T19:35:06.319Z,58.42
2018-02-21T19:37:36.197Z,58.61
2018-02-21T19:40:06.179Z,58.54
2018-02-21T19:42:36.174Z,58.84
2018-02-21T19:45:06.133Z,58.88
2018-02-21T19:47:35.938Z,58.93
2018-02-21T19:50:06.371Z,59.19
2018-02-21T19:52:36.952Z,59.11
2018-02-21T19:55:07.580Z,59.08
2018-02-21T19:57:37.298Z,59.09
2018-02-21T20:00:07.661Z,59.21
2018-02-21T20:02:38.844Z,59.43
2018-02-21T20:05:08.713Z,59.46
2018-02-21T20:07:38.816Z,59.55
2018-02-21T20:10:08.648Z,59.61
2018-02-21T20:12:38.746Z,59.35
2018-02-21T20:15:08.561Z,59.54
2018-02-21T20:17:38.538Z,59.60
2018-02-21T20:20:08.353Z,59.77
2018-02-21T20:22:38.257Z,59.71
2018-02-21T20:25:08.109Z,59.93
2018-02-21T20:27:38.233Z,60.14
2018-02-21T20:30:08.002Z,60.21
2018-02-21T20:32:38.527Z,60.30
2018-02-21T20:35:08.629Z,60.11
2018-02-21T20:37:38.446Z,60.37
2018-02-21T20:40:08.649Z,60.20
2018-02-21T20:42:38.455Z,60.37
2018-02-21T20:45:09.088Z,60.44
2018-02-21T20:47:38.984Z,60.40
2018-02-21T20:50:08.755Z,60.49
2018-02-21T20:52:39.086Z,60.64
2018-02-21T20:55:09.016Z,60.70
2018-02-21T20:57:45.637Z,60.74
2018-02-21T21:00:15.525Z,60.66
2018-02-21T21:02:45.401Z,60.58
2018-02-21T21:05:16.069Z,60.79
2018-02-21T21:07:45.951Z,60.88
2018-02-21T21:10:16.352Z,60.87
2018-02-21T21:12:46.438Z,60.89
2018-02-21T21:15:16.217Z,61.09
2018-02-21T21:17:46.008Z,61.24
2018-02-21T21:20:16.573Z,61.11
2018-02-21T21:22:46.316Z,61.29
2018-02-21T21:25:16.197Z,61.58
2018-02-21T21:27:46.721Z,61.65
2018-02-21T21:30:16.568Z,61.71
2018-02-21T21:32:47.057Z,61.35
2018-02-21T21:35:16.892Z,61.53
2018-02-21T21:37:46.670Z,61.75
2018-02-21T21:40:16.446Z,61.62
2018-02-21T21:42:46.210Z,61.86
2018-02-21T21:45:15.972Z,62.02
2018-02-21T21:47:45.674Z,62.09
2018-02-21T21:50:15.473Z,61.91
2018-02-21T21:52:45.282Z,62.02
2018-02-21T21:55:15.927Z,62.29
2018-02-21T21:57:45.856Z,62.59
2018-02-21T22:00:16.562Z,67.19
2018-02-21T22:02:46.357Z,61.87
2018-02-21T22:05:16.834Z,62.16
2018-02-21T22:07:46.575Z,62.49
2018-02-21T22:10:16.368Z,62.54
2018-02-21T22:12:46.271Z,62.61
2018-02-21T22:15:16.046Z,62.81
2018-02-21T22:17:45.795Z,63.10
2018-02-21T22:20:15.839Z,63.20
2018-02-21T22:22:45.568Z,63.33
2018-02-21T22:25:16.102Z,63.23
2018-02-21T22:27:45.871Z,63.38
2018-02-21T22:30:15.643Z,63.40
2018-02-21T22:32:45.312Z,63.33
2018-02-21T22:35:15.024Z,63.29
2018-02-21T22:37:44.748Z,63.32
2018-02-21T22:40:14.524Z,63.20
2018-02-21T22:42:44.774Z,63.33
2018-02-21T22:45:14.486Z,63.47
2018-02-21T22:47:44.228Z,63.60
2018-02-21T22:50:14.035Z,63.69
2018-02-21T22:52:43.787Z,63.69
2018-02-21T22:55:13.480Z,63.96
2018-02-21T22:57:43.266Z,63.95
2018-02-21T23:00:14.003Z,64.04
2018-02-21T23:05:12.777Z,64.02
2018-02-21T23:07:42.486Z,63.92
2018-02-21T23:10:12.315Z,64.08
2018-02-21T23:12:42.220Z,64.10
2018-02-21T23:15:11.920Z,64.21
2018-02-21T23:17:43.149Z,64.48
2018-02-21T23:20:12.868Z,64.52
2018-02-21T23:22:42.635Z,64.49
2018-02-21T23:25:13.132Z,64.62
2018-02-21T23:27:43.020Z,64.67
2018-02-21T23:30:12.713Z,64.87
2018-02-21T23:32:43.410Z,64.87
2018-02-21T23:35:13.126Z,64.68
2018-02-21T23:37:42.866Z,64.74
2018-02-21T23:40:12.692Z,64.73
2018-02-21T23:42:42.468Z,64.86
2018-02-21T23:45:12.293Z,65.22
2018-02-21T23:47:42.006Z,65.07
2018-02-21T23:50:11.807Z,65.07
2018-02-21T23:52:42.348Z,65.11
2018-02-21T23:55:12.804Z,65.01
2018-02-21T23:57:43.318Z,65.31
